Time;durP1;ratioP1;P1;durP2;ratioP2;P2;SDS_P1;SDS_P2;PMS_P1;PMS_P2;Temp;Humidity;BMP_temperature;BMP_pressure;BME280_temperature;BME280_humidity;BME280_pressure;Samples;Min_cycle;Max_cycle;Signal;HPM_P1;HPM_P2
2023/08/19 00:01:30;;;;;;;52.25;46.90;;;20.10;99.90;;;;;;5043817;28;20570;-40
2023/08/19 00:03:56;;;;;;;49.28;44.70;;;20.10;99.90;;;;;;5030449;28;20041;-41
2023/08/19 00:06:39;;;;;;;50.70;45.78;;;20.00;99.90;;;;;;5042344;28;20571;-40
2023/08/19 00:09:07;;;;;;;49.35;44.83;;;20.00;99.90;;;;;;5051065;28;20044;-42
2023/08/19 00:11:34;;;;;;;49.22;44.47;;;20.10;99.90;;;;;;5054675;28;20491;-46
2023/08/19 00:14:00;;;;;;;49.97;45.15;;;20.00;99.90;;;;;;5056987;28;20437;-46
2023/08/19 00:16:26;;;;;;;50.83;45.95;;;20.00;99.90;;;;;;5037046;28;20053;-42
2023/08/19 00:18:52;;;;;;;50.95;45.75;;;19.90;99.90;;;;;;5037714;28;20057;-43
2023/08/19 00:21:18;;;;;;;46.15;42.00;;;20.00;99.90;;;;;;5054449;28;20036;-41
2023/08/19 00:23:44;;;;;;;49.22;44.55;;;20.00;99.90;;;;;;5043702;28;20041;-45
2023/08/19 00:26:12;;;;;;;48.38;43.85;;;19.90;99.90;;;;;;5066775;28;20367;-43
2023/08/19 00:28:38;;;;;;;48.63;44.15;;;19.90;99.90;;;;;;5065213;28;20064;-43
2023/08/19 00:31:05;;;;;;;51.33;46.25;;;19.90;99.90;;;;;;5046659;28;20237;-45
2023/08/19 00:33:31;;;;;;;49.00;44.40;;;19.90;99.90;;;;;;5052967;28;20106;-44
2023/08/19 00:35:57;;;;;;;51.22;46.20;;;19.80;99.90;;;;;;5052857;28;20045;-44
2023/08/19 00:38:22;;;;;;;48.65;43.60;;;19.80;99.90;;;;;;5050622;28;20040;-44
2023/08/19 00:40:48;;;;;;;49.35;44.80;;;19.80;99.90;;;;;;5059646;28;20120;-42
2023/08/19 00:43:14;;;;;;;50.50;45.90;;;19.80;99.90;;;;;;5058664;28;20099;-45
2023/08/19 00:45:44;;;;;;;50.20;45.40;;;19.90;99.90;;;;;;5051866;28;20559;-42
2023/08/19 00:48:12;;;;;;;47.78;43.22;;;19.80;99.90;;;;;;5053931;28;20519;-41
2023/08/19 00:50:38;;;;;;;49.38;44.90;;;19.80;99.90;;;;;;5054748;28;20371;-43
2023/08/19 00:53:05;;;;;;;48.95;44.35;;;19.80;99.90;;;;;;5056115;28;20119;-44
2023/08/19 00:55:31;;;;;;;50.20;45.60;;;19.80;99.90;;;;;;5050819;28;20889;-45
2023/08/19 00:58:01;;;;;;;49.13;44.25;;;19.80;99.90;;;;;;5054464;28;20117;-44
2023/08/19 01:00:29;;;;;;;47.70;43.17;;;19.70;99.90;;;;;;5055475;28;20082;-41
2023/08/19 01:02:55;;;;;;;51.40;46.58;;;19.80;99.90;;;;;;5052188;28;20040;-46
2023/08/19 01:05:22;;;;;;;47.10;42.80;;;19.70;99.90;;;;;;5053394;28;20267;-42
2023/08/19 01:07:55;;;;;;;48.22;43.88;;;19.80;99.90;;;;;;5055191;28;20368;-40
2023/08/19 01:10:26;;;;;;;;;;;19.70;99.90;;;;;;5053077;28;20048;-42
2023/08/19 01:13:17;;;;;;;48.70;44.08;;;19.70;99.90;;;;;;5053804;28;19927;-40
2023/08/19 01:16:10;;;;;;;48.05;43.65;;;19.70;99.90;;;;;;5042206;28;20053;-41
2023/08/19 01:18:38;;;;;;;45.83;41.63;;;19.70;99.90;;;;;;5047119;28;20052;-43
2023/08/19 01:21:05;;;;;;;48.33;43.78;;;19.70;99.90;;;;;;5050888;28;20457;-45
2023/08/19 01:23:34;;;;;;;46.70;42.38;;;19.70;99.90;;;;;;5049942;28;20600;-45
2023/08/19 01:26:00;;;;;;;46.33;41.92;;;19.70;99.90;;;;;;5051632;28;20119;-48
2023/08/19 01:28:26;;;;;;;46.38;42.08;;;19.70;99.90;;;;;;5049366;28;20425;-46
2023/08/19 01:30:51;;;;;;;47.60;43.30;;;19.70;99.90;;;;;;5054022;28;20090;-40
2023/08/19 01:33:19;;;;;;;44.10;40.08;;;19.70;99.90;;;;;;5084543;28;20132;-43
2023/08/19 01:36:13;;;;;;;47.28;43.00;;;19.70;99.90;;;;;;5041082;28;20450;-43
2023/08/19 01:39:06;;;;;;;48.08;43.55;;;19.80;99.90;;;;;;5049693;28;20048;-39
2023/08/19 01:41:33;;;;;;;48.60;44.13;;;19.70;99.90;;;;;;5049054;28;20514;-43
2023/08/19 01:44:00;;;;;;;47.38;43.03;;;19.70;99.90;;;;;;5050929;28;20060;-44
2023/08/19 01:46:26;;;;;;;45.85;41.65;;;19.70;99.90;;;;;;5055326;28;20182;-44
2023/08/19 01:48:52;;;;;;;43.58;39.70;;;19.70;99.90;;;;;;5050040;28;20047;-45
2023/08/19 01:51:18;;;;;;;44.67;40.50;;;19.70;99.90;;;;;;5047942;28;20522;-42
2023/08/19 01:53:44;;;;;;;46.97;42.58;;;19.60;99.90;;;;;;5051114;28;20506;-47
2023/08/19 01:56:11;;;;;;;48.00;43.65;;;19.70;99.90;;;;;;5049707;28;20052;-42
2023/08/19 01:58:37;;;;;;;44.45;40.30;;;19.70;99.90;;;;;;5051325;28;20110;-42
2023/08/19 02:01:03;;;;;;;46.25;41.67;;;19.70;99.90;;;;;;5031274;28;20442;-44
2023/08/19 02:03:28;;;;;;;45.03;40.97;;;19.70;99.90;;;;;;5051615;28;20079;-43
2023/08/19 02:05:54;;;;;;;43.10;39.28;;;19.70;99.90;;;;;;5048795;28;20048;-47
2023/08/19 02:08:20;;;;;;;44.70;40.50;;;19.70;99.90;;;;;;5049896;28;20118;-46
2023/08/19 02:10:46;;;;;;;44.15;40.00;;;19.80;99.90;;;;;;5051232;28;20074;-46
2023/08/19 02:13:11;;;;;;;45.63;41.33;;;19.70;99.90;;;;;;5049696;28;20040;-45
2023/08/19 02:15:37;;;;;;;44.75;40.53;;;19.70;99.90;;;;;;5042155;28;20139;-42
2023/08/19 02:18:03;;;;;;;43.45;39.38;;;19.80;99.90;;;;;;5052160;28;20037;-39
2023/08/19 02:20:29;;;;;;;44.90;40.85;;;19.70;99.90;;;;;;5046659;28;20546;-40
2023/08/19 02:22:55;;;;;;;45.50;41.15;;;19.70;99.90;;;;;;5051541;28;20044;-44
2023/08/19 02:25:20;;;;;;;42.45;38.63;;;19.80;99.90;;;;;;5051556;28;20045;-47
2023/08/19 02:27:46;;;;;;;41.83;38.13;;;19.70;99.90;;;;;;5054447;28;20032;-46
2023/08/19 02:30:12;;;;;;;42.92;39.15;;;19.70;99.90;;;;;;5046233;28;20103;-48
2023/08/19 02:32:41;;;;;;;41.47;37.72;;;19.70;99.90;;;;;;5042274;28;20043;-42
2023/08/19 02:35:08;;;;;;;43.75;39.85;;;19.70;99.90;;;;;;5053862;28;20124;-46
2023/08/19 02:37:34;;;;;;;43.22;39.42;;;19.70;99.90;;;;;;5054326;28;20043;-45
2023/08/19 02:40:00;;;;;;;41.08;37.40;;;19.70;99.90;;;;;;5050331;28;20045;-41
2023/08/19 02:42:25;;;;;;;44.10;39.92;;;19.70;99.90;;;;;;5045913;28;20075;-45
2023/08/19 02:44:51;;;;;;;45.25;41.05;;;19.70;99.90;;;;;;5053342;28;20500;-44
2023/08/19 02:47:17;;;;;;;42.80;38.75;;;19.70;99.90;;;;;;5050040;28;20098;-47
2023/08/19 02:49:43;;;;;;;42.55;38.65;;;19.70;99.90;;;;;;5048647;28;20044;-41
2023/08/19 02:52:09;;;;;;;42.97;39.30;;;19.70;99.90;;;;;;5050980;28;20048;-40
2023/08/19 02:54:35;;;;;;;44.40;40.20;;;19.70;99.90;;;;;;5053558;28;20501;-46
2023/08/19 02:57:00;;;;;;;42.55;38.50;;;19.80;99.90;;;;;;5050387;28;20422;-47
2023/08/19 02:59:26;;;;;;;41.70;37.90;;;19.80;99.90;;;;;;5049322;28;20048;-43
2023/08/19 03:01:52;;;;;;;41.70;37.90;;;19.80;99.90;;;;;;5053626;28;20418;-45
2023/08/19 03:04:17;;;;;;;40.20;36.75;;;19.70;99.90;;;;;;5053688;28;20727;-43
2023/08/19 03:06:43;;;;;;;41.63;37.80;;;19.70;99.90;;;;;;5054137;28;20040;-40
2023/08/19 03:09:09;;;;;;;40.85;37.17;;;19.70;99.90;;;;;;5046385;28;20036;-40
2023/08/19 03:11:36;;;;;;;39.45;35.97;;;19.80;99.90;;;;;;5042646;28;20084;-44
2023/08/19 03:14:02;;;;;;;39.40;35.55;;;19.70;99.90;;;;;;5055268;28;20052;-44
2023/08/19 03:16:28;;;;;;;39.53;35.70;;;19.80;99.90;;;;;;5052474;28;20036;-45
2023/08/19 03:18:53;;;;;;;39.72;36.03;;;19.80;99.90;;;;;;5054930;28;20044;-46
2023/08/19 03:21:19;;;;;;;40.80;36.92;;;19.90;99.90;;;;;;5056704;28;20048;-44
2023/08/19 03:23:45;;;;;;;40.20;36.70;;;19.90;99.90;;;;;;5053286;28;20040;-46
2023/08/19 03:26:11;;;;;;;38.40;34.80;;;19.80;99.90;;;;;;5053651;28;20044;-43
2023/08/19 03:28:37;;;;;;;39.05;35.53;;;19.90;99.90;;;;;;5051701;28;20328;-43
2023/08/19 03:31:12;;;;;;;39.10;35.60;;;19.90;99.90;;;;;;5044238;28;20047;-41
2023/08/19 03:33:38;;;;;;;38.03;34.65;;;19.90;99.90;;;;;;5054917;28;20409;-41
2023/08/19 03:36:04;;;;;;;38.45;34.90;;;19.90;99.90;;;;;;5051632;28;20133;-41
2023/08/19 03:38:30;;;;;;;38.33;34.97;;;19.90;99.90;;;;;;5052857;28;20147;-52
2023/08/19 03:40:56;;;;;;;36.28;33.03;;;19.90;99.90;;;;;;5051923;28;20045;-41
2023/08/19 03:43:22;;;;;;;38.40;35.03;;;19.90;99.90;;;;;;5047080;28;20040;-41
2023/08/19 03:45:47;;;;;;;38.72;35.22;;;19.90;99.90;;;;;;5050027;28;20584;-41
2023/08/19 03:48:13;;;;;;;37.35;33.95;;;19.90;99.90;;;;;;5054177;28;20547;-40
2023/08/19 03:50:39;;;;;;;37.65;34.35;;;19.90;99.90;;;;;;5056911;28;20083;-42
2023/08/19 03:53:05;;;;;;;36.95;33.67;;;19.80;99.90;;;;;;5051707;28;20512;-42
2023/08/19 03:55:31;;;;;;;35.75;32.60;;;19.80;99.90;;;;;;5048984;28;20182;-45
2023/08/19 03:57:57;;;;;;;34.15;31.05;;;19.90;99.90;;;;;;5053110;28;20052;-43
2023/08/19 04:00:23;;;;;;;34.95;31.92;;;19.90;99.90;;;;;;5039381;28;20053;-47
2023/08/19 04:02:48;;;;;;;33.95;31.15;;;19.80;99.90;;;;;;5049972;28;20048;-40
2023/08/19 04:05:14;;;;;;;35.22;31.88;;;19.90;99.90;;;;;;5054431;28;20399;-46
2023/08/19 04:07:40;;;;;;;34.72;31.42;;;20.00;99.90;;;;;;5042865;28;20504;-41
2023/08/19 04:10:07;;;;;;;33.40;30.38;;;19.90;99.90;;;;;;5037416;28;20102;-44
2023/08/19 04:12:33;;;;;;;33.63;30.83;;;19.90;99.90;;;;;;5052455;28;20091;-40
2023/08/19 04:14:59;;;;;;;35.80;32.38;;;19.90;99.90;;;;;;5046529;28;20147;-42
2023/08/19 04:17:25;;;;;;;33.50;30.42;;;20.00;99.90;;;;;;5067433;28;20307;-47
2023/08/19 04:19:51;;;;;;;32.85;29.75;;;20.10;99.90;;;;;;5041194;28;20306;-41
2023/08/19 04:22:17;;;;;;;32.63;29.52;;;20.00;99.90;;;;;;5056275;28;20041;-47
2023/08/19 04:24:52;;;;;;;33.10;30.05;;;20.10;99.90;;;;;;5053607;28;20215;-44
2023/08/19 04:27:18;;;;;;;34.55;30.98;;;20.10;99.90;;;;;;5050439;28;20052;-42
2023/08/19 04:29:44;;;;;;;32.58;29.50;;;20.20;99.90;;;;;;5053375;28;20549;-43
2023/08/19 04:32:10;;;;;;;33.50;30.33;;;20.30;99.90;;;;;;5046368;28;20048;-47
2023/08/19 04:34:36;;;;;;;31.35;28.58;;;20.30;99.90;;;;;;5056108;28;20044;-42
2023/08/19 04:37:01;;;;;;;30.23;27.45;;;20.30;99.90;;;;;;5050749;28;20110;-45
2023/08/19 04:39:27;;;;;;;33.55;30.38;;;20.40;99.90;;;;;;5048630;28;20348;-44
2023/08/19 04:41:53;;;;;;;30.73;27.92;;;20.50;99.90;;;;;;5055598;28;20044;-46
2023/08/19 04:44:19;;;;;;;30.08;27.40;;;20.50;99.90;;;;;;5055439;28;20111;-46
2023/08/19 04:46:45;;;;;;;30.02;27.35;;;20.50;99.90;;;;;;5052805;28;20045;-41
2023/08/19 04:49:11;;;;;;;29.48;26.83;;;20.60;99.90;;;;;;5055569;28;20051;-44
2023/08/19 04:51:37;;;;;;;28.50;26.05;;;20.60;99.90;;;;;;5052066;28;20078;-45
2023/08/19 04:54:03;;;;;;;31.58;28.88;;;20.70;99.90;;;;;;5050517;28;20049;-44
2023/08/19 04:56:29;;;;;;;32.42;29.48;;;20.70;99.90;;;;;;5055745;28;20091;-39
2023/08/19 04:58:55;;;;;;;30.77;28.08;;;20.70;99.90;;;;;;5045678;28;20502;-45
2023/08/19 05:01:21;;;;;;;28.58;26.02;;;20.70;99.90;;;;;;5066470;28;20452;-43
2023/08/19 05:03:47;;;;;;;28.08;25.45;;;20.70;99.90;;;;;;5044053;28;20091;-44
2023/08/19 05:06:13;;;;;;;28.52;25.77;;;20.70;99.90;;;;;;5052649;28;20131;-41
2023/08/19 05:08:38;;;;;;;29.10;26.45;;;20.70;99.90;;;;;;5051988;28;20464;-40
2023/08/19 05:11:04;;;;;;;28.50;26.00;;;20.70;99.90;;;;;;5051323;28;20033;-46
2023/08/19 05:13:30;;;;;;;29.23;26.42;;;20.70;99.90;;;;;;5067160;28;20055;-42
2023/08/19 05:15:59;;;;;;;28.00;25.30;;;20.70;99.90;;;;;;5074480;28;20095;-44
2023/08/19 05:18:25;;;;;;;26.10;23.55;;;20.70;99.90;;;;;;5054394;28;20119;-44
2023/08/19 05:20:50;;;;;;;27.70;24.95;;;20.70;99.90;;;;;;5040072;28;20159;-44
2023/08/19 05:23:16;;;;;;;26.52;24.13;;;20.70;99.90;;;;;;5046438;28;20062;-45
2023/08/19 05:25:43;;;;;;;28.35;25.60;;;20.70;99.90;;;;;;5052612;28;20081;-48
2023/08/19 05:28:09;;;;;;;28.15;25.58;;;20.80;99.90;;;;;;5052448;28;20044;-43
2023/08/19 05:30:35;;;;;;;26.50;23.88;;;20.80;99.90;;;;;;5054131;28;20059;-43
2023/08/19 05:33:01;;;;;;;28.33;24.98;;;20.80;99.90;;;;;;5042475;28;20431;-47
2023/08/19 05:35:26;;;;;;;26.63;24.23;;;20.90;99.90;;;;;;5052503;28;20530;-48
2023/08/19 05:37:52;;;;;;;27.63;24.98;;;20.90;99.90;;;;;;5055021;28;20044;-43
2023/08/19 05:40:18;;;;;;;28.83;25.92;;;20.90;99.90;;;;;;5054712;28;20044;-42
2023/08/19 05:42:43;;;;;;;27.75;24.95;;;20.90;99.90;;;;;;5052145;28;20040;-44
2023/08/19 05:45:09;;;;;;;29.13;26.33;;;20.90;99.90;;;;;;5046050;28;20996;-45
2023/08/19 05:47:35;;;;;;;26.75;24.15;;;21.00;99.90;;;;;;5046186;28;20044;-40
2023/08/19 05:50:01;;;;;;;28.30;25.73;;;21.00;99.90;;;;;;5052546;28;20048;-47
2023/08/19 05:52:27;;;;;;;27.55;24.95;;;21.10;99.90;;;;;;5047412;28;20044;-44
2023/08/19 05:54:52;;;;;;;25.98;23.48;;;21.10;99.90;;;;;;5051618;28;20040;-44
2023/08/19 05:57:18;;;;;;;27.33;24.90;;;21.20;99.90;;;;;;5053170;28;20048;-49
2023/08/19 05:59:44;;;;;;;27.33;24.77;;;21.20;99.90;;;;;;5053378;28;20372;-47
2023/08/19 06:02:09;;;;;;;28.85;25.90;;;21.20;99.90;;;;;;5053486;28;20094;-45
2023/08/19 06:04:35;;;;;;;25.85;23.35;;;21.30;99.90;;;;;;5054698;28;20051;-42
2023/08/19 06:07:01;;;;;;;23.77;21.67;;;21.30;99.90;;;;;;5047900;28;20465;-46
2023/08/19 06:09:27;;;;;;;25.95;23.52;;;21.30;99.90;;;;;;5050977;28;20064;-40
2023/08/19 06:11:52;;;;;;;26.48;23.70;;;21.30;99.90;;;;;;5046432;28;20466;-42
2023/08/19 06:14:21;;;;;;;25.35;22.98;;;21.30;99.90;;;;;;5051975;28;20049;-44
2023/08/19 06:16:47;;;;;;;26.15;23.60;;;21.30;99.90;;;;;;5076734;28;20108;-47
2023/08/19 06:19:12;;;;;;;25.77;23.45;;;21.30;99.90;;;;;;5048745;28;20052;-46
2023/08/19 06:21:39;;;;;;;26.40;23.90;;;21.30;99.90;;;;;;5044698;28;20040;-43
2023/08/19 06:24:05;;;;;;;25.60;23.00;;;21.30;99.90;;;;;;5050361;28;20075;-45
2023/08/19 06:26:31;;;;;;;23.35;21.20;;;21.20;99.90;;;;;;5065114;28;20695;-44
2023/08/19 06:28:57;;;;;;;24.60;22.27;;;21.30;99.90;;;;;;5060833;28;20035;-44
2023/08/19 06:31:23;;;;;;;23.85;21.85;;;21.30;99.90;;;;;;5063040;28;20052;-43
2023/08/19 06:33:51;;;;;;;25.60;23.25;;;21.30;99.90;;;;;;5071060;28;20051;-41
2023/08/19 06:36:29;;;;;;;23.88;21.48;;;21.30;99.90;;;;;;5074663;28;20066;-45
2023/08/19 06:39:24;;;;;;;24.17;22.20;;;21.40;99.90;;;;;;5047912;28;20182;-43
2023/08/19 06:41:56;;;;;;;23.55;21.25;;;21.50;99.90;;;;;;5036202;28;20048;-42
2023/08/19 06:44:22;;;;;;;23.85;21.75;;;21.50;99.90;;;;;;5054277;28;20360;-42
2023/08/19 06:46:49;;;;;;;23.48;21.17;;;21.50;99.90;;;;;;5052013;28;20062;-45
2023/08/19 06:49:15;;;;;;;22.70;20.60;;;21.60;99.90;;;;;;5054287;28;20055;-44
2023/08/19 06:51:41;;;;;;;23.27;20.88;;;21.60;99.90;;;;;;5050167;28;20258;-45
2023/08/19 06:54:07;;;;;;;22.85;20.50;;;21.70;99.90;;;;;;5058598;28;20455;-40
2023/08/19 06:56:43;;;;;;;21.75;19.80;;;21.70;99.90;;;;;;5032204;28;20364;-42
2023/08/19 06:59:18;;;;;;;22.20;19.88;;;21.70;99.90;;;;;;5050334;28;20052;-45
2023/08/19 07:01:50;;;;;;;22.65;20.52;;;21.80;99.90;;;;;;5044283;28;20039;-48
2023/08/19 07:04:19;;;;;;;22.35;20.15;;;21.90;99.90;;;;;;5051030;28;20080;-41
2023/08/19 07:06:46;;;;;;;20.17;18.30;;;21.90;99.90;;;;;;5057654;28;20370;-45
2023/08/19 07:09:12;;;;;;;21.55;19.73;;;21.90;99.90;;;;;;5077361;28;20037;-45
2023/08/19 07:11:38;;;;;;;22.25;20.05;;;22.00;99.90;;;;;;5051962;28;20060;-44
2023/08/19 07:14:04;;;;;;;21.83;19.52;;;22.10;99.90;;;;;;5055828;28;20331;-46
2023/08/19 07:16:35;;;;;;;21.50;19.48;;;22.20;99.90;;;;;;5040741;28;20052;-43
2023/08/19 07:19:05;;;;;;;19.88;17.77;;;22.30;99.90;;;;;;5057291;28;20413;-46
2023/08/19 07:21:32;;;;;;;19.95;18.23;;;22.40;99.90;;;;;;5089980;28;20059;-46
2023/08/19 07:23:59;;;;;;;20.48;18.63;;;22.50;99.90;;;;;;5053219;28;20231;-43
2023/08/19 07:26:26;;;;;;;20.13;18.15;;;22.50;99.90;;;;;;5056035;28;20554;-48
2023/08/19 07:28:53;;;;;;;20.10;18.10;;;22.50;99.90;;;;;;5074035;28;20048;-44
2023/08/19 07:31:22;;;;;;;21.90;19.30;;;22.50;99.90;;;;;;5068101;28;20044;-45
2023/08/19 07:33:48;;;;;;;20.23;17.55;;;22.60;99.90;;;;;;5053733;28;20458;-43
2023/08/19 07:36:13;;;;;;;19.70;17.67;;;22.60;99.90;;;;;;5056920;28;20036;-45
2023/08/19 07:38:39;;;;;;;19.40;17.48;;;22.60;99.90;;;;;;5056711;28;20036;-43
2023/08/19 07:41:05;;;;;;;20.67;18.65;;;22.60;99.90;;;;;;5055885;28;20411;-45
2023/08/19 07:43:31;;;;;;;20.15;18.30;;;22.60;99.90;;;;;;5056239;28;20351;-46
2023/08/19 07:45:56;;;;;;;18.08;16.20;;;22.60;99.90;;;;;;5056481;28;20051;-45
2023/08/19 07:48:22;;;;;;;19.02;17.20;;;22.60;99.90;;;;;;5056222;28;20044;-46
2023/08/19 07:50:48;;;;;;;18.52;16.58;;;22.60;99.90;;;;;;5053231;28;20425;-44
2023/08/19 07:53:13;;;;;;;17.27;15.48;;;22.60;99.90;;;;;;5054886;28;20132;-40
2023/08/19 07:55:39;;;;;;;18.02;16.33;;;22.60;99.90;;;;;;5055409;28;20337;-42
2023/08/19 07:58:05;;;;;;;18.60;16.65;;;22.70;99.90;;;;;;5055848;28;20036;-43
2023/08/19 08:00:30;;;;;;;17.45;15.65;;;22.70;99.90;;;;;;5055587;28;20040;-48
2023/08/19 08:02:56;;;;;;;18.92;16.92;;;22.80;99.90;;;;;;5056382;28;20040;-40
2023/08/19 08:05:22;;;;;;;17.95;16.33;;;22.80;99.90;;;;;;5054342;28;20250;-48
2023/08/19 08:07:47;;;;;;;18.67;16.85;;;22.90;99.90;;;;;;5056857;28;20048;-42
2023/08/19 08:10:13;;;;;;;19.75;17.80;;;23.00;99.90;;;;;;5047426;28;20068;-42
2023/08/19 08:12:38;;;;;;;18.63;16.83;;;23.20;99.90;;;;;;5049994;28;20048;-40
2023/08/19 08:15:04;;;;;;;17.23;15.35;;;23.40;99.90;;;;;;5046065;28;20503;-45
2023/08/19 08:17:30;;;;;;;17.90;16.05;;;23.50;99.90;;;;;;5049099;28;20125;-42
2023/08/19 08:19:57;;;;;;;20.52;16.88;;;23.70;99.90;;;;;;5083623;28;20040;-43
2023/08/19 08:22:23;;;;;;;17.50;15.73;;;23.90;99.90;;;;;;5050741;28;20063;-44
2023/08/19 08:24:49;;;;;;;18.35;16.42;;;24.20;99.90;;;;;;5052954;28;20067;-41
2023/08/19 08:27:15;;;;;;;17.83;16.08;;;24.50;99.90;;;;;;5051631;28;20052;-42
2023/08/19 08:29:41;;;;;;;17.10;15.50;;;24.70;99.90;;;;;;5053208;28;20651;-44
2023/08/19 08:32:08;;;;;;;17.30;15.60;;;25.00;99.90;;;;;;5049711;28;20623;-41
2023/08/19 08:34:34;;;;;;;18.52;15.20;;;25.20;99.90;;;;;;5052506;28;20522;-41
2023/08/19 08:36:59;;;;;;;16.40;14.90;;;25.30;99.90;;;;;;5051150;28;20052;-43
2023/08/19 08:39:25;;;;;;;16.88;14.70;;;25.30;99.90;;;;;;5052837;28;20036;-41
2023/08/19 08:41:51;;;;;;;15.90;13.85;;;25.30;99.90;;;;;;5052845;28;20143;-41
2023/08/19 08:44:17;;;;;;;15.27;13.57;;;25.40;99.90;;;;;;5051531;28;20268;-48
2023/08/19 08:46:45;;;;;;;15.65;12.77;;;25.30;99.90;;;;;;5049587;28;20049;-47
2023/08/19 08:49:12;;;;;;;14.25;12.73;;;25.20;99.90;;;;;;5052257;28;20489;-43
2023/08/19 08:51:39;;;;;;;14.55;13.25;;;25.10;99.90;;;;;;5049423;28;20075;-42
2023/08/19 08:54:06;;;;;;;14.52;12.98;;;25.20;99.90;;;;;;5052625;28;20478;-45
2023/08/19 08:56:31;;;;;;;13.63;12.07;;;25.10;99.90;;;;;;5051699;28;20052;-47
2023/08/19 08:58:58;;;;;;;13.80;11.85;;;25.10;99.90;;;;;;5053583;28;20040;-50
2023/08/19 09:01:27;;;;;;;14.52;12.98;;;25.20;99.90;;;;;;5051900;28;20119;-44
2023/08/19 09:03:57;;;;;;;15.10;13.25;;;25.40;99.90;;;;;;5052138;28;20445;-43
2023/08/19 09:06:23;;;;;;;13.90;12.57;;;25.60;99.90;;;;;;5050976;28;20556;-44
2023/08/19 09:09:00;;;;;;;14.63;12.85;;;25.70;99.90;;;;;;5051933;28;20041;-41
2023/08/19 09:11:27;;;;;;;14.18;12.73;;;25.80;99.90;;;;;;5052855;28;20142;-45
2023/08/19 09:14:13;;;;;;;14.52;13.02;;;25.80;99.90;;;;;;5050354;28;20044;-41
2023/08/19 09:16:39;;;;;;;15.40;12.38;;;25.80;99.90;;;;;;5051594;28;20515;-44
2023/08/19 09:19:04;;;;;;;14.10;12.52;;;25.80;99.90;;;;;;5048882;28;20048;-44
2023/08/19 09:21:31;;;;;;;15.40;12.55;;;25.80;99.90;;;;;;5046159;28;20572;-47
2023/08/19 09:23:59;;;;;;;16.00;12.95;;;25.90;99.90;;;;;;5051755;28;20495;-41
2023/08/19 09:26:25;;;;;;;13.48;12.27;;;26.10;99.90;;;;;;5047742;28;20053;-45
2023/08/19 09:28:57;;;;;;;13.43;12.13;;;26.50;99.90;;;;;;5041133;28;20049;-46
2023/08/19 09:31:24;;;;;;;15.02;13.38;;;26.90;99.90;;;;;;5073945;28;20090;-47
2023/08/19 09:33:52;;;;;;;13.90;12.43;;;27.00;99.90;;;;;;5049917;28;20565;-49
2023/08/19 09:36:21;;;;;;;15.57;12.30;;;26.80;99.90;;;;;;5077915;27;20052;-43
2023/08/19 09:38:54;;;;;;;14.73;12.85;;;26.70;99.90;;;;;;5036186;28;20080;-47
2023/08/19 09:41:24;;;;;;;14.13;12.73;;;26.50;99.90;;;;;;5048760;28;20600;-45
2023/08/19 09:43:50;;;;;;;17.23;14.27;;;26.40;99.90;;;;;;5047538;28;20067;-47
2023/08/19 09:46:16;;;;;;;18.17;16.30;;;26.10;99.90;;;;;;5051871;28;20407;-45
2023/08/19 09:48:54;;;;;;;16.75;15.15;;;25.90;99.90;;;;;;5048802;28;20120;-46
2023/08/19 09:51:29;;;;;;;16.23;14.57;;;25.70;99.90;;;;;;5048377;28;20048;-46
2023/08/19 09:53:55;;;;;;;16.58;14.90;;;25.60;99.90;;;;;;5050356;28;20040;-47
2023/08/19 09:56:24;;;;;;;16.35;14.73;;;25.40;99.90;;;;;;5053754;28;20366;-42
2023/08/19 09:58:51;;;;;;;17.58;14.13;;;25.40;99.90;;;;;;5049432;28;20052;-47
2023/08/19 10:01:18;;;;;;;14.40;13.00;;;25.30;99.90;;;;;;5054445;28;20077;-48
2023/08/19 10:03:43;;;;;;;16.40;14.80;;;25.30;99.90;;;;;;5051393;28;20041;-41
2023/08/19 10:06:13;;;;;;;16.77;15.07;;;25.30;99.90;;;;;;5055378;28;20207;-44
2023/08/19 10:08:46;;;;;;;16.50;14.70;;;25.30;99.90;;;;;;5081579;28;20316;-43
2023/08/19 10:11:16;;;;;;;17.98;15.88;;;25.40;99.90;;;;;;5052638;28;20046;-45
2023/08/19 10:13:45;;;;;;;17.48;15.57;;;25.50;99.90;;;;;;5049485;28;20571;-46
2023/08/19 10:16:16;;;;;;;18.15;16.20;;;25.50;99.90;;;;;;5048981;28;20958;-47
2023/08/19 10:18:45;;;;;;;17.00;15.30;;;25.60;99.90;;;;;;5052180;28;20056;-48
2023/08/19 10:21:14;;;;;;;16.10;14.45;;;25.80;99.90;;;;;;5051545;28;20053;-45
2023/08/19 10:23:44;;;;;;;17.75;15.88;;;25.90;99.90;;;;;;5050165;28;20048;-44
2023/08/19 10:26:10;;;;;;;17.85;16.17;;;25.90;99.90;;;;;;5051282;28;20072;-43
2023/08/19 10:28:36;;;;;;;16.63;14.98;;;25.90;99.90;;;;;;5051336;28;20040;-42
2023/08/19 10:31:05;;;;;;;18.25;16.42;;;25.90;99.90;;;;;;5046290;28;20051;-45
2023/08/19 10:33:41;;;;;;;17.55;15.70;;;25.90;99.90;;;;;;5046642;28;20053;-48
2023/08/19 10:36:08;;;;;;;18.60;16.15;;;26.00;99.90;;;;;;5081813;28;20048;-41
2023/08/19 10:38:42;;;;;;;18.42;16.60;;;26.00;99.90;;;;;;5049886;28;20048;-44
2023/08/19 10:41:24;;;;;;;18.17;16.35;;;26.00;99.90;;;;;;5048528;28;20518;-43
2023/08/19 10:43:52;;;;;;;18.40;16.88;;;26.00;99.90;;;;;;5046975;28;20052;-47
2023/08/19 10:46:18;;;;;;;21.05;19.13;;;26.10;99.90;;;;;;5049196;28;20045;-41
2023/08/19 10:48:51;;;;;;;22.42;20.10;;;26.20;99.90;;;;;;5048696;28;20052;-48
2023/08/19 10:51:20;;;;;;;25.45;22.88;;;26.40;99.90;;;;;;5045935;28;20048;-50
2023/08/19 10:54:06;;;;;;;25.73;23.13;;;26.60;99.90;;;;;;5047594;28;20827;-43
2023/08/19 10:56:32;;;;;;;26.27;23.92;;;26.90;99.90;;;;;;5051549;28;20138;-43
2023/08/19 10:58:59;;;;;;;26.15;23.63;;;27.00;99.90;;;;;;5049345;28;20067;-45
2023/08/19 11:01:30;;;;;;;29.20;26.50;;;27.20;99.90;;;;;;5052570;28;20059;-48
2023/08/19 11:03:58;;;;;;;30.33;27.63;;;27.20;99.90;;;;;;5032309;28;20395;-51
2023/08/19 11:06:29;;;;;;;30.35;27.48;;;27.10;99.90;;;;;;5047942;28;20052;-41
2023/08/19 11:09:01;;;;;;;30.25;27.65;;;27.00;99.90;;;;;;5045183;28;20118;-43
2023/08/19 11:11:27;;;;;;;34.67;31.52;;;27.00;99.90;;;;;;5047593;28;20068;-47
2023/08/19 11:13:53;;;;;;;33.80;30.80;;;26.80;99.90;;;;;;5057587;28;20206;-44
2023/08/19 11:16:24;;;;;;;36.08;32.90;;;26.70;99.90;;;;;;5057577;28;20044;-44
2023/08/19 11:18:52;;;;;;;35.88;32.58;;;26.60;99.90;;;;;;5055936;28;20052;-46
2023/08/19 11:21:19;;;;;;;37.25;33.65;;;26.40;99.90;;;;;;5052857;28;20082;-47
2023/08/19 11:23:45;;;;;;;34.55;31.25;;;26.30;99.90;;;;;;5040405;28;20684;-46
2023/08/19 11:26:11;;;;;;;27.88;25.25;;;25.90;99.90;;;;;;5041854;28;20060;-45
2023/08/19 11:28:37;;;;;;;26.67;24.05;;;25.60;99.90;;;;;;5037130;28;20118;-46
2023/08/19 11:31:02;;;;;;;26.35;23.48;;;25.30;99.90;;;;;;5049864;28;20044;-44
2023/08/19 11:33:31;;;;;;;24.05;21.60;;;25.10;99.90;;;;;;5048309;28;20040;-49
2023/08/19 11:35:57;;;;;;;20.88;18.77;;;24.90;99.90;;;;;;5051130;28;20028;-44
2023/08/19 11:38:23;;;;;;;20.45;18.25;;;24.80;99.90;;;;;;5051258;28;20509;-44
2023/08/19 11:40:54;;;;;;;19.92;17.83;;;24.80;99.90;;;;;;5054334;28;20042;-46
2023/08/19 11:43:24;;;;;;;20.85;18.73;;;24.80;99.90;;;;;;5056139;28;20269;-43
2023/08/19 11:45:49;;;;;;;21.60;18.10;;;24.80;99.90;;;;;;5035435;28;20048;-48
2023/08/19 11:48:17;;;;;;;17.92;16.13;;;24.70;99.90;;;;;;5052234;28;20028;-42
2023/08/19 11:50:50;;;;;;;17.30;14.07;;;24.70;99.90;;;;;;5054916;28;20050;-43
2023/08/19 11:53:27;;;;;;;14.90;13.25;;;24.50;99.90;;;;;;5052295;28;20044;-42
2023/08/19 11:55:57;;;;;;;13.40;10.93;;;24.50;99.90;;;;;;5056307;28;20048;-44
2023/08/19 11:58:25;;;;;;;12.77;11.18;;;24.60;99.90;;;;;;5056699;28;20033;-40
2023/08/19 12:00:55;;;;;;;12.35;9.18;;;24.50;99.90;;;;;;5054582;28;20831;-42
2023/08/19 12:03:22;;;;;;;10.13;8.85;;;24.60;99.90;;;;;;5056445;28;20051;-46
2023/08/19 12:05:47;;;;;;;12.32;8.80;;;24.60;99.90;;;;;;5056377;28;20044;-44
2023/08/19 12:08:38;;;;;;;41.58;10.88;;;24.70;99.90;;;;;;5055076;28;20044;-40
2023/08/19 12:11:03;;;;;;;10.63;8.65;;;24.70;99.90;;;;;;5058408;28;20040;-41
2023/08/19 12:13:29;;;;;;;8.73;6.97;;;24.80;99.90;;;;;;5053737;28;20033;-42
2023/08/19 12:15:55;;;;;;;7.53;6.68;;;24.80;99.90;;;;;;5052181;28;20048;-45
2023/08/19 12:18:22;;;;;;;7.63;6.28;;;24.80;99.90;;;;;;5052124;28;20032;-42
2023/08/19 12:20:48;;;;;;;7.32;4.20;;;24.80;99.90;;;;;;5052896;28;20044;-46
2023/08/19 12:23:14;;;;;;;7.05;4.03;;;24.90;99.90;;;;;;5052611;28;20128;-42
2023/08/19 12:25:54;;;;;;;7.07;4.00;;;24.90;99.90;;;;;;5053205;28;20086;-45
2023/08/19 12:28:20;;;;;;;8.30;4.72;;;25.00;99.90;;;;;;5052888;28;21031;-45
2023/08/19 12:30:47;;;;;;;8.50;5.10;;;25.20;99.90;;;;;;5051817;28;20043;-45